Mirando City, Texas
Current Conditions -  °F | °C
As of 8:55 AM on Wednesday 26 Nov 2014 (Local Time) from KHBV Reporting Station
Clear Clear  
Wind Chill: 58°   Ceiling: Unl
Heat Index: 58°   Visibility: 10mi
Dew Point: 35°   Wind: 10mph
Humidity: 41%   Direction: 200°SSW
Pressure: 30.29"   Gusts: NA
Location:  27.44°N, 99°W
Report Text: KHBV 261455Z AUTO 20009KT 10SM CLR 15/01 A3029 RMK AO2 T01460014
Loading
Personal Weather Stations






























Interactive Weather Map New forecast layout! Learn more

10-Day Weather Forecast

Advertisements
Track Severe Weather on mobile